Upper Lawn, Pennsylvania
Current Conditions -  °F | °C
As of 3:27 AM on Monday 26 Jan 2015 (Local Time) from KMUI Reporting Station
Light Snow Light Snow  
Wind Chill: 17°   Ceiling: 1100
Heat Index: 25°   Visibility: 1.5mi
Dew Point: 23°   Wind: 7mph
Humidity: 93%   Direction: 60°ENE
Pressure: 29.9"   Gusts: NA
Location:  40.2909°N, 76.5834°W
Report Text: KMUI 260827Z AUTO 06006KT 1 1/2SM -SN BR OVC011 M04/M05 A2990 RMK AO2
Loading
Personal Weather Stations






























Interactive Weather Map New forecast layout! Learn more

10-Day Weather Forecast

Advertisements
Track Severe Weather on mobile